الصفحة الرئيسية
METAR-TAF:

METAR-TAF

مطار :

مطار ورززات

ورززات, المغرب

دائرة عرض: 30-56N, خط طول: 006-54W, ارتفاع: 1139 متر

مراقبة الطقس الحالي

تاريخ ووقت الإصدار 48 دقيقة قبل الساعة 08:00UTC
ريح 12 عقدة من الشمال الغربي
درجة الحرارة 15°درجة مئوية
الرطوبة 25%
ضغط 1011 hPa
الرؤية 10 كم أو أكثر
غيوم قليلة على ارتفاع 4000 قدم

METAR: GMMZ 190800Z 31012KT 9999 FEW040 15/M05 Q1011 NOSIG

زمن: 09:48 (08:48 UTC)

توقعات

تاريخ ووقت الإصدار 3ساعات و 48 دقيقة قبل الساعة 05:00UTC
التوقعات صالحة من19 الساعة 06 UTC إلى 20 الساعة 12 UTC
ريح 18 عقدة من الغرب/الشمال الغربي
الرؤية 10 كم أو أكثر
غيوم قليلة على ارتفاع 4000 قدم
أصبح
من 19 الساعة 21 UTC إلى 19 الساعة 23 UTC
ريح 7 عقدة من الشمال الغربي

TAF: GMMZ 190500Z 1906/2012 30018KT 9999 FEW040 BECMG 1921/1923 32007KT

أرصاد الطقس والتوقعات من أكثر من 4000 مطار (تقارير الطقس للمطار METAR والتنبؤ بالطقس بالمطارTAF).

المحطات المتاحة هي النقط الصفراء والحمراء على الخريطة.

حرك المؤشر فوق النقطة لمعرفة اسم المحطة.

ثم انقر لمعرفة أرصاد وتوقعات الطقس.

لتغيير الخارطة: اضغط على الأزرار الخضراء مع رمز الصليب الأسود للتكبير. على الزر الأخضر مع شرطة للتصغير، أو على الأسهم الخضراء للخرائط المجاورة.


METAR-TAF: